createdAt,value
2022-07-25T00:00:03.098Z,0.00
2022-07-25T00:01:03.092Z,0.00
2022-07-25T00:02:03.132Z,0.00
2022-07-25T00:03:03.058Z,0.00
2022-07-25T00:04:03.567Z,0.00
2022-07-25T00:05:03.190Z,0.00
2022-07-25T00:06:03.026Z,0.00
2022-07-25T00:07:03.010Z,0.00
2022-07-25T00:08:02.999Z,0.00
2022-07-25T00:09:02.983Z,0.00
2022-07-25T00:10:02.981Z,0.00
2022-07-25T00:11:02.959Z,0.00
2022-07-25T00:12:02.954Z,0.00
2022-07-25T00:13:02.933Z,0.00
2022-07-25T00:14:03.220Z,0.00
2022-07-25T00:15:02.913Z,0.00
2022-07-25T00:16:03.013Z,0.00
2022-07-25T00:17:02.888Z,0.00
2022-07-25T00:18:02.872Z,0.00
2022-07-25T00:19:02.863Z,0.00
2022-07-25T00:20:02.850Z,0.00
2022-07-25T00:21:02.836Z,0.00
2022-07-25T00:22:02.825Z,0.00
2022-07-25T00:23:02.812Z,0.00
2022-07-25T00:24:03.179Z,0.00
2022-07-25T00:25:02.783Z,0.00
2022-07-25T00:26:02.777Z,0.00
2022-07-25T00:27:02.782Z,0.00
2022-07-25T00:28:02.750Z,0.00
2022-07-25T00:29:02.738Z,0.00
2022-07-25T00:30:02.721Z,0.00
2022-07-25T00:31:02.768Z,0.00
2022-07-25T00:32:02.701Z,0.00
2022-07-25T00:33:02.687Z,0.00
2022-07-25T00:34:03.093Z,0.00
2022-07-25T00:35:02.660Z,0.00
2022-07-25T00:36:02.646Z,0.00
2022-07-25T00:37:02.636Z,0.00
2022-07-25T00:38:02.622Z,0.00
2022-07-25T00:39:02.608Z,0.00
2022-07-25T00:40:02.597Z,0.00
2022-07-25T00:41:02.586Z,0.00
2022-07-25T00:42:02.572Z,0.00
2022-07-25T00:43:02.563Z,0.00
2022-07-25T00:44:02.876Z,0.00
2022-07-25T00:45:02.536Z,0.00
2022-07-25T00:46:02.572Z,0.00
2022-07-25T00:47:02.507Z,0.00
2022-07-25T00:48:02.498Z,0.00
2022-07-25T00:49:02.609Z,0.00
2022-07-25T00:50:02.468Z,0.00
2022-07-25T00:51:02.456Z,0.00
2022-07-25T00:52:02.445Z,0.00
2022-07-25T00:53:02.432Z,0.00
2022-07-25T00:54:02.674Z,0.00
2022-07-25T00:55:02.407Z,0.00
2022-07-25T00:56:02.396Z,0.00
2022-07-25T00:57:02.405Z,0.00
2022-07-25T00:58:02.379Z,0.00
2022-07-25T00:59:02.364Z,0.00
2022-07-25T01:00:02.343Z,0.00
2022-07-25T01:01:02.332Z,0.00
2022-07-25T01:02:04.039Z,0.00
2022-07-25T01:03:02.343Z,0.00
2022-07-25T01:04:02.411Z,0.00
2022-07-25T01:05:02.276Z,0.00
2022-07-25T01:06:02.269Z,0.00
2022-07-25T01:07:02.260Z,0.00
2022-07-25T01:08:02.236Z,0.00
2022-07-25T01:09:02.224Z,0.00
2022-07-25T01:10:02.220Z,0.00
2022-07-25T01:11:02.199Z,0.00
2022-07-25T01:12:02.190Z,0.00
2022-07-25T01:13:02.183Z,0.00
2022-07-25T01:14:02.406Z,0.00
2022-07-25T01:15:02.156Z,0.00
2022-07-25T01:16:02.265Z,0.00
2022-07-25T01:17:02.124Z,0.00
2022-07-25T01:18:02.111Z,0.00
2022-07-25T01:19:02.098Z,0.00
2022-07-25T01:20:02.089Z,0.00
2022-07-25T01:21:02.074Z,0.00
2022-07-25T01:22:02.064Z,0.00
2022-07-25T01:23:02.047Z,0.00
2022-07-25T01:24:02.177Z,0.00
2022-07-25T01:25:02.019Z,0.00
2022-07-25T01:26:02.022Z,0.00
2022-07-25T01:27:01.994Z,0.00
2022-07-25T01:28:01.982Z,0.00
2022-07-25T01:29:01.969Z,0.00
2022-07-25T01:30:01.954Z,0.00
2022-07-25T01:31:02.006Z,0.00
2022-07-25T01:32:01.932Z,0.00
2022-07-25T01:33:06.847Z,0.00
2022-07-25T01:34:01.908Z,0.00
2022-07-25T01:35:01.892Z,0.00
2022-07-25T01:36:01.881Z,0.00
2022-07-25T01:37:01.865Z,0.00
2022-07-25T01:38:01.855Z,0.00
2022-07-25T01:39:01.839Z,0.00
2022-07-25T01:40:01.832Z,0.00
2022-07-25T01:41:01.813Z,0.00
2022-07-25T01:42:01.805Z,0.00
2022-07-25T01:43:01.790Z,0.00
2022-07-25T01:44:01.777Z,0.00
2022-07-25T01:45:01.762Z,0.00
2022-07-25T01:46:01.809Z,0.00
2022-07-25T01:47:01.731Z,0.00
2022-07-25T01:48:01.722Z,0.00
2022-07-25T01:49:01.786Z,0.00
2022-07-25T01:50:01.696Z,0.00
2022-07-25T01:51:01.683Z,0.00
2022-07-25T01:52:01.671Z,0.00
2022-07-25T01:53:01.658Z,0.00
2022-07-25T01:54:01.647Z,0.00
2022-07-25T01:55:01.631Z,0.00
2022-07-25T01:56:02.872Z,0.00
2022-07-25T01:57:01.605Z,0.00
2022-07-25T01:58:01.597Z,0.00
2022-07-25T01:59:01.580Z,0.00
2022-07-25T02:00:01.566Z,0.00
2022-07-25T02:01:01.605Z,0.00
2022-07-25T02:02:01.664Z,0.00
2022-07-25T02:03:01.531Z,0.00
2022-07-25T02:04:01.632Z,0.00
2022-07-25T02:05:01.675Z,0.00
2022-07-25T02:06:01.492Z,0.00
2022-07-25T02:07:01.473Z,0.00
2022-07-25T02:08:01.459Z,0.00
2022-07-25T02:09:01.446Z,0.00
2022-07-25T02:10:01.441Z,0.00
2022-07-25T02:11:01.423Z,0.00
2022-07-25T02:12:01.409Z,0.00
2022-07-25T02:13:01.393Z,0.00
2022-07-25T02:14:01.392Z,0.00
2022-07-25T02:15:01.373Z,0.00
2022-07-25T02:16:01.365Z,0.00
2022-07-25T02:17:01.401Z,0.00
2022-07-25T02:18:01.338Z,0.00
2022-07-25T02:19:01.313Z,0.00
2022-07-25T02:20:01.304Z,0.00
2022-07-25T02:21:01.287Z,0.00
2022-07-25T02:22:01.281Z,0.00
2022-07-25T02:23:01.262Z,0.00
2022-07-25T02:24:01.248Z,0.00
2022-07-25T02:25:01.231Z,0.00
2022-07-25T02:26:01.224Z,0.00
2022-07-25T02:27:01.210Z,0.00
2022-07-25T02:28:01.197Z,0.00
2022-07-25T02:29:01.183Z,0.00
2022-07-25T02:30:01.170Z,0.00
2022-07-25T02:31:01.244Z,0.00
2022-07-25T02:32:01.140Z,0.00
2022-07-25T02:33:01.130Z,0.00
2022-07-25T02:34:01.123Z,0.00
2022-07-25T02:35:01.105Z,0.00
2022-07-25T02:36:01.098Z,0.00
2022-07-25T02:37:01.081Z,0.00
2022-07-25T02:38:01.060Z,0.00
2022-07-25T02:39:01.053Z,0.00
2022-07-25T02:40:01.042Z,0.00
2022-07-25T02:41:01.024Z,0.00
2022-07-25T02:42:01.011Z,0.00
2022-07-25T02:43:00.996Z,0.00
2022-07-25T02:44:00.985Z,0.00
2022-07-25T02:45:00.968Z,0.00
2022-07-25T02:46:01.018Z,0.00
2022-07-25T02:47:00.941Z,0.00
2022-07-25T02:48:00.940Z,0.00
2022-07-25T02:49:00.957Z,0.00
2022-07-25T02:50:00.907Z,0.00
2022-07-25T02:51:00.889Z,0.00
2022-07-25T02:52:00.882Z,0.00
2022-07-25T02:53:00.866Z,0.00
2022-07-25T02:54:00.848Z,0.00
2022-07-25T02:55:02.216Z,0.00
2022-07-25T02:56:00.821Z,0.00
2022-07-25T02:57:00.811Z,0.00
2022-07-25T02:58:00.798Z,0.00
2022-07-25T02:59:00.786Z,0.00
2022-07-25T03:00:00.776Z,0.00
2022-07-25T03:01:00.819Z,0.00
2022-07-25T03:02:00.744Z,0.00
2022-07-25T03:03:00.735Z,0.00
2022-07-25T03:04:00.869Z,0.00
2022-07-25T03:05:00.704Z,0.00
2022-07-25T03:06:00.687Z,0.00
2022-07-25T03:07:00.673Z,4.00
2022-07-25T03:08:00.663Z,4.00
2022-07-25T03:09:00.650Z,0.00
2022-07-25T03:10:00.635Z,0.00
2022-07-25T03:11:00.620Z,4.00
2022-07-25T03:12:00.614Z,4.00
2022-07-25T03:13:00.598Z,4.00
2022-07-25T03:14:00.583Z,4.00
2022-07-25T03:15:00.570Z,8.00
2022-07-25T03:16:00.553Z,4.00
2022-07-25T03:17:00.598Z,8.00
2022-07-25T03:18:00.531Z,8.00
2022-07-25T03:19:00.520Z,8.00
2022-07-25T03:20:00.509Z,8.00
2022-07-25T03:21:00.493Z,8.00
2022-07-25T03:22:00.480Z,8.00
2022-07-25T03:23:00.463Z,16.00
2022-07-25T03:24:00.449Z,16.00
2022-07-25T03:25:00.437Z,20.00
2022-07-25T03:26:00.422Z,16.00
2022-07-25T03:27:00.412Z,20.00
2022-07-25T03:28:00.396Z,24.00
2022-07-25T03:29:00.386Z,28.00
2022-07-25T03:30:00.365Z,32.00
2022-07-25T03:31:00.354Z,32.00
2022-07-25T03:32:00.434Z,40.00
2022-07-25T03:33:00.326Z,44.00
2022-07-25T03:34:00.311Z,48.00
2022-07-25T03:35:00.297Z,52.00
2022-07-25T03:36:00.283Z,60.00
2022-07-25T03:37:00.273Z,64.00
2022-07-25T03:38:00.260Z,68.00
2022-07-25T03:39:00.247Z,76.00
2022-07-25T03:40:00.234Z,84.00
2022-07-25T03:41:00.219Z,92.00
2022-07-25T03:42:00.208Z,96.00
2022-07-25T03:43:00.194Z,108.00
2022-07-25T03:44:00.180Z,116.00
2022-07-25T03:45:00.166Z,128.00
2022-07-25T03:46:00.260Z,132.00
2022-07-25T03:47:00.139Z,148.00
2022-07-25T03:48:00.132Z,156.00
2022-07-25T03:49:00.229Z,168.00
2022-07-25T03:50:00.131Z,180.00
2022-07-25T03:51:04.887Z,196.00
2022-07-25T03:52:00.074Z,208.00
2022-07-25T03:53:00.062Z,220.00
2022-07-25T03:54:00.043Z,236.00
2022-07-25T03:55:00.045Z,248.00
2022-07-25T03:56:00.014Z,264.00
2022-07-25T03:57:00.005Z,276.00
2022-07-25T03:57:59.989Z,296.00
2022-07-25T03:58:59.977Z,308.00
2022-07-25T03:59:59.964Z,324.00
2022-07-25T04:01:00.066Z,340.00
2022-07-25T04:02:00.011Z,360.00
2022-07-25T04:02:59.922Z,376.00
2022-07-25T04:03:59.908Z,396.00
2022-07-25T04:04:59.900Z,412.00
2022-07-25T04:05:59.883Z,432.00
2022-07-25T04:06:59.866Z,452.00
2022-07-25T04:07:59.909Z,472.00
2022-07-25T04:08:59.838Z,488.00
2022-07-25T04:09:59.828Z,508.00
2022-07-25T04:10:59.812Z,528.00
2022-07-25T04:11:59.809Z,556.00
2022-07-25T04:12:59.785Z,584.00
2022-07-25T04:13:59.773Z,600.00
2022-07-25T04:14:59.761Z,624.00
2022-07-25T04:15:59.746Z,640.00
2022-07-25T04:16:59.800Z,656.00
2022-07-25T04:17:59.720Z,676.00
2022-07-25T04:19:01.120Z,684.00
2022-07-25T04:19:59.689Z,700.00
2022-07-25T04:20:59.675Z,720.00
2022-07-25T04:21:59.673Z,736.00
2022-07-25T04:22:59.652Z,752.00
2022-07-25T04:23:59.638Z,780.00
2022-07-25T04:24:59.623Z,808.00
2022-07-25T04:25:59.608Z,840.00
2022-07-25T04:26:59.595Z,884.00
2022-07-25T04:27:59.589Z,920.00
2022-07-25T04:28:59.572Z,960.00
2022-07-25T04:29:59.557Z,1000.00
2022-07-25T04:30:59.542Z,1032.00
2022-07-25T04:31:59.673Z,1068.00
2022-07-25T04:32:59.521Z,1108.00
2022-07-25T04:33:59.513Z,1144.00
2022-07-25T04:34:59.486Z,1168.00
2022-07-25T04:35:59.473Z,1204.00
2022-07-25T04:36:59.458Z,1252.00
2022-07-25T04:37:59.445Z,1300.00
2022-07-25T04:38:59.435Z,1344.00
2022-07-25T04:39:59.419Z,1384.00
2022-07-25T04:40:59.406Z,1424.00
2022-07-25T04:41:59.400Z,1460.00
2022-07-25T04:42:59.377Z,1508.00
2022-07-25T04:43:59.366Z,1552.00
2022-07-25T04:44:59.354Z,1584.00
2022-07-25T04:45:59.392Z,1588.00
2022-07-25T04:46:59.325Z,1584.00
2022-07-25T04:47:59.312Z,1572.00
2022-07-25T04:48:59.368Z,1576.00
2022-07-25T04:49:59.288Z,1604.00
2022-07-25T04:50:59.278Z,1628.00
2022-07-25T04:51:59.255Z,1640.00
2022-07-25T04:52:59.251Z,1636.00
2022-07-25T04:53:59.235Z,1652.00
2022-07-25T04:54:59.218Z,1656.00
2022-07-25T04:55:59.204Z,1644.00
2022-07-25T04:56:59.194Z,1660.00
2022-07-25T04:57:59.179Z,1640.00
2022-07-25T04:59:04.662Z,1684.00
2022-07-25T04:59:59.155Z,1708.00
2022-07-25T05:00:59.216Z,1688.00
2022-07-25T05:01:59.188Z,1708.00
2022-07-25T05:02:59.115Z,1720.00
2022-07-25T05:03:59.094Z,1740.00
2022-07-25T05:04:59.079Z,1736.00
2022-07-25T05:05:59.068Z,1728.00
2022-07-25T05:06:59.059Z,1704.00
2022-07-25T05:07:59.042Z,1736.00
2022-07-25T05:08:59.036Z,1816.00
2022-07-25T05:09:59.016Z,1856.00
2022-07-25T05:10:59.005Z,1832.00
2022-07-25T05:11:58.989Z,1784.00
2022-07-25T05:12:58.979Z,1772.00
2022-07-25T05:13:58.963Z,1820.00
2022-07-25T05:14:58.947Z,1904.00
2022-07-25T05:15:58.947Z,1956.00
2022-07-25T05:16:58.928Z,1960.00
2022-07-25T05:17:58.912Z,1896.00
2022-07-25T05:18:58.897Z,1860.00
2022-07-25T05:19:58.878Z,1836.00
2022-07-25T05:20:58.867Z,1820.00
2022-07-25T05:21:58.856Z,1816.00
2022-07-25T05:22:58.843Z,1808.00
2022-07-25T05:23:58.828Z,1776.00
2022-07-25T05:24:58.819Z,1756.00
2022-07-25T05:25:58.807Z,1756.00
2022-07-25T05:26:58.788Z,1772.00
2022-07-25T05:27:58.773Z,1784.00
2022-07-25T05:28:58.760Z,1796.00
2022-07-25T05:29:58.760Z,1776.00
2022-07-25T05:30:58.735Z,1784.00
2022-07-25T05:31:58.799Z,1800.00
2022-07-25T05:32:58.705Z,1828.00
2022-07-25T05:33:58.695Z,1884.00
2022-07-25T05:34:58.677Z,1964.00
2022-07-25T05:35:58.666Z,2072.00
2022-07-25T05:36:58.659Z,2192.00
2022-07-25T05:37:58.644Z,2304.00
2022-07-25T05:38:58.628Z,2380.00
2022-07-25T05:39:58.613Z,2464.00
2022-07-25T05:40:58.613Z,2600.00
2022-07-25T05:41:58.584Z,2716.00
2022-07-25T05:43:02.927Z,2696.00
2022-07-25T05:43:58.565Z,2764.00
2022-07-25T05:44:58.549Z,2712.00
2022-07-25T05:45:58.535Z,2680.00
2022-07-25T05:46:58.626Z,2804.00
2022-07-25T05:47:58.505Z,2896.00
2022-07-25T05:48:58.563Z,2836.00
2022-07-25T05:49:58.487Z,2820.00
2022-07-25T05:50:58.474Z,2808.00
2022-07-25T05:51:58.458Z,2780.00
2022-07-25T05:52:58.448Z,2812.00
2022-07-25T05:53:58.436Z,2924.00
2022-07-25T05:54:58.435Z,2992.00
2022-07-25T05:55:58.403Z,3092.00
2022-07-25T05:56:58.394Z,3116.00
2022-07-25T05:57:58.379Z,3168.00
2022-07-25T05:58:58.368Z,3040.00
2022-07-25T05:59:58.353Z,2928.00
2022-07-25T06:00:58.350Z,3044.00
2022-07-25T06:01:58.514Z,3204.00
2022-07-25T06:02:58.442Z,3256.00
2022-07-25T06:03:58.306Z,3240.00
2022-07-25T06:04:58.290Z,3260.00
2022-07-25T06:05:58.276Z,3312.00
2022-07-25T06:06:58.271Z,3420.00
2022-07-25T06:07:58.251Z,3556.00
2022-07-25T06:08:58.239Z,3704.00
2022-07-25T06:09:58.228Z,4012.00
2022-07-25T06:10:58.218Z,4084.00
2022-07-25T06:12:01.047Z,4188.00
2022-07-25T06:12:58.184Z,4372.00
2022-07-25T06:13:58.172Z,4244.00
2022-07-25T06:14:58.156Z,4096.00
2022-07-25T06:15:58.207Z,4032.00
2022-07-25T06:16:58.135Z,3944.00
2022-07-25T06:17:58.125Z,4248.00
2022-07-25T06:18:58.111Z,4264.00
2022-07-25T06:19:58.097Z,4324.00
2022-07-25T06:20:58.088Z,4536.00
2022-07-25T06:21:58.076Z,4500.00
2022-07-25T06:22:58.057Z,4556.00
2022-07-25T06:23:58.045Z,4624.00
2022-07-25T06:24:58.041Z,4612.00
2022-07-25T06:25:58.018Z,4476.00
2022-07-25T06:26:58.013Z,4236.00
2022-07-25T06:27:58.002Z,4248.00
2022-07-25T06:28:57.983Z,4316.00
2022-07-25T06:29:57.973Z,4276.00
2022-07-25T06:30:58.148Z,4348.00
2022-07-25T06:31:58.026Z,4468.00
2022-07-25T06:32:57.941Z,4272.00
2022-07-25T06:33:57.919Z,3968.00
2022-07-25T06:34:57.912Z,3964.00
2022-07-25T06:35:57.902Z,3992.00
2022-07-25T06:36:57.884Z,3916.00
2022-07-25T06:37:57.872Z,3848.00
2022-07-25T06:38:57.863Z,3872.00
2022-07-25T06:39:57.844Z,4032.00
2022-07-25T06:40:57.841Z,4716.00
2022-07-25T06:41:57.818Z,5016.00
2022-07-25T06:42:57.814Z,5272.00
2022-07-25T06:43:57.798Z,5504.00
2022-07-25T06:44:57.787Z,5504.00
2022-07-25T06:45:57.772Z,5120.00
2022-07-25T06:46:57.888Z,4904.00
2022-07-25T06:47:57.751Z,4720.00
2022-07-25T06:48:57.867Z,4588.00
2022-07-25T06:49:57.728Z,5424.00
2022-07-25T06:50:57.712Z,5624.00
2022-07-25T06:51:57.697Z,5344.00
2022-07-25T06:52:57.694Z,5000.00
2022-07-25T06:53:57.677Z,5676.00
2022-07-25T06:54:57.671Z,5848.00
2022-07-25T06:55:57.651Z,6088.00
2022-07-25T06:56:57.638Z,6104.00
2022-07-25T06:57:57.627Z,6276.00
2022-07-25T06:58:57.624Z,5700.00
2022-07-25T06:59:57.613Z,5876.00
2022-07-25T07:00:57.680Z,6636.00
2022-07-25T07:01:57.581Z,6520.00
2022-07-25T07:02:58.148Z,6660.00
2022-07-25T07:03:57.559Z,6568.00
2022-07-25T07:04:57.543Z,7052.00
2022-07-25T07:05:57.537Z,6984.00
2022-07-25T07:06:57.524Z,6592.00
2022-07-25T07:07:57.510Z,6500.00
2022-07-25T07:08:57.504Z,6768.00
2022-07-25T07:09:57.491Z,6596.00
2022-07-25T07:10:57.480Z,6552.00
2022-07-25T07:11:57.465Z,6472.00
2022-07-25T07:12:57.463Z,6316.00
2022-07-25T07:13:57.443Z,6100.00
2022-07-25T07:14:57.434Z,5944.00
2022-07-25T07:15:57.450Z,5756.00
2022-07-25T07:16:57.414Z,5700.00
2022-07-25T07:17:57.398Z,5720.00
2022-07-25T07:18:57.386Z,5952.00
2022-07-25T07:19:57.372Z,6264.00
2022-07-25T07:20:57.360Z,6656.00
2022-07-25T07:21:57.353Z,7096.00
2022-07-25T07:22:57.341Z,7212.00
2022-07-25T07:23:57.332Z,7136.00
2022-07-25T07:24:57.327Z,7032.00
2022-07-25T07:25:57.313Z,7032.00
2022-07-25T07:26:57.303Z,7032.00
2022-07-25T07:27:57.289Z,6900.00
2022-07-25T07:28:57.278Z,6820.00
2022-07-25T07:29:57.272Z,6932.00
2022-07-25T07:31:57.324Z,7332.00
2022-07-25T07:32:57.239Z,7180.00
2022-07-25T07:33:57.226Z,7084.00
2022-07-25T07:34:57.215Z,6932.00
2022-07-25T07:35:57.332Z,7016.00
2022-07-25T07:36:57.200Z,7088.00
2022-07-25T07:37:57.189Z,7288.00
2022-07-25T07:38:57.178Z,7000.00
2022-07-25T07:39:57.168Z,6472.00
2022-07-25T07:40:57.158Z,6096.00
2022-07-25T07:41:57.143Z,5816.00
2022-07-25T07:42:57.133Z,5544.00
2022-07-25T07:43:57.120Z,5396.00
2022-07-25T07:44:57.129Z,5412.00
2022-07-25T07:45:57.099Z,5516.00
2022-07-25T07:46:57.223Z,5504.00
2022-07-25T07:47:57.115Z,5304.00
2022-07-25T07:48:57.216Z,5100.00
2022-07-25T07:49:57.056Z,5084.00
2022-07-25T07:50:57.050Z,5016.00
2022-07-25T07:51:57.041Z,5052.00
2022-07-25T07:52:57.034Z,5016.00
2022-07-25T07:53:57.019Z,4976.00
2022-07-25T07:54:59.398Z,5020.00
2022-07-25T07:55:56.997Z,5208.00
2022-07-25T07:56:56.988Z,5432.00
2022-07-25T07:57:56.974Z,5600.00
2022-07-25T07:58:56.967Z,5696.00
2022-07-25T07:59:56.955Z,5872.00
2022-07-25T08:00:56.943Z,6008.00
2022-07-25T08:01:57.100Z,5836.00
2022-07-25T08:02:57.109Z,5768.00
2022-07-25T08:03:56.918Z,5712.00
2022-07-25T08:04:56.908Z,5684.00
2022-07-25T08:05:56.899Z,5620.00
2022-07-25T08:06:56.886Z,5672.00
2022-07-25T08:07:56.873Z,5960.00
2022-07-25T08:08:56.864Z,6312.00
2022-07-25T08:09:56.858Z,6620.00
2022-07-25T08:10:58.969Z,7312.00
2022-07-25T08:11:56.836Z,7952.00
2022-07-25T08:12:56.822Z,8008.00
2022-07-25T08:13:56.815Z,7240.00
2022-07-25T08:14:56.803Z,6592.00
2022-07-25T08:15:56.876Z,6220.00
2022-07-25T08:16:56.786Z,6072.00
2022-07-25T08:17:56.770Z,6324.00
2022-07-25T08:18:56.767Z,6500.00
2022-07-25T08:20:05.521Z,6536.00
2022-07-25T08:20:56.741Z,5972.00
2022-07-25T08:21:56.732Z,5364.00
2022-07-25T08:22:56.896Z,5336.00
2022-07-25T08:23:56.710Z,5912.00
2022-07-25T08:24:56.700Z,5708.00
2022-07-25T08:25:56.701Z,5156.00
2022-07-25T08:26:56.681Z,5168.00
2022-07-25T08:27:56.670Z,5636.00
2022-07-25T08:29:17.518Z,5508.00
2022-07-25T08:29:56.657Z,4836.00
2022-07-25T08:30:56.683Z,4688.00
2022-07-25T08:31:56.631Z,4740.00
2022-07-25T08:32:56.620Z,4272.00
2022-07-25T08:33:56.614Z,4044.00
2022-07-25T08:34:56.601Z,3864.00
2022-07-25T08:35:56.596Z,3608.00
2022-07-25T08:36:56.585Z,3504.00
2022-07-25T08:37:56.574Z,3544.00
2022-07-25T08:38:56.564Z,3628.00
2022-07-25T08:39:56.557Z,3488.00
2022-07-25T08:40:56.553Z,3428.00
2022-07-25T08:41:56.532Z,3340.00
2022-07-25T08:42:56.529Z,3308.00
2022-07-25T08:43:56.513Z,3360.00
2022-07-25T08:44:56.504Z,3396.00
2022-07-25T08:45:56.574Z,3200.00
2022-07-25T08:46:56.593Z,3220.00
2022-07-25T08:47:56.478Z,3412.00
2022-07-25T08:48:56.533Z,3772.00
2022-07-25T08:50:00.848Z,3712.00
2022-07-25T08:50:56.444Z,3684.00
2022-07-25T08:51:56.429Z,3696.00
2022-07-25T08:53:16.201Z,3704.00
2022-07-25T08:53:56.410Z,3732.00
2022-07-25T08:54:56.403Z,3852.00
2022-07-25T08:55:56.385Z,3964.00
2022-07-25T08:56:56.390Z,4020.00
2022-07-25T08:57:56.380Z,4436.00
2022-07-25T08:58:56.363Z,5440.00
2022-07-25T08:59:56.350Z,4532.00
2022-07-25T09:00:56.342Z,6532.00
2022-07-25T09:01:56.399Z,5072.00
2022-07-25T09:02:56.411Z,6232.00
2022-07-25T09:03:56.305Z,6688.00
2022-07-25T09:04:56.298Z,6588.00
2022-07-25T09:05:56.287Z,7468.00
2022-07-25T09:06:56.283Z,7384.00
2022-07-25T09:07:56.268Z,10396.00
2022-07-25T09:08:56.267Z,15116.00
2022-07-25T09:09:56.251Z,20480.00
2022-07-25T09:10:56.243Z,19360.00
2022-07-25T09:11:56.237Z,19456.00
2022-07-25T09:12:56.222Z,22880.00
2022-07-25T09:13:56.228Z,17984.00
2022-07-25T09:14:56.201Z,8260.00
2022-07-25T09:15:56.248Z,10380.00
2022-07-25T09:16:56.185Z,8500.00
2022-07-25T09:17:56.172Z,9924.00
2022-07-25T09:18:56.165Z,22304.00
2022-07-25T09:19:56.151Z,32128.00
2022-07-25T09:20:56.148Z,44992.00
2022-07-25T09:21:56.134Z,41248.00
2022-07-25T09:22:56.131Z,49664.00
2022-07-25T09:23:56.119Z,32480.00
2022-07-25T09:24:56.114Z,28064.00
2022-07-25T09:25:56.111Z,26496.00
2022-07-25T09:26:56.190Z,27968.00
2022-07-25T09:27:56.087Z,29760.00
2022-07-25T09:28:56.088Z,25120.00
2022-07-25T09:29:56.083Z,17792.00
2022-07-25T09:30:56.167Z,13324.00
2022-07-25T09:31:56.067Z,16256.00
2022-07-25T09:32:56.071Z,28160.00
2022-07-25T09:33:56.053Z,31680.00
2022-07-25T09:34:56.049Z,13172.00
2022-07-25T09:35:56.046Z,10268.00
2022-07-25T09:36:56.036Z,21056.00
2022-07-25T09:37:56.040Z,24320.00
2022-07-25T09:38:56.033Z,27744.00
2022-07-25T09:39:56.026Z,29920.00
2022-07-25T09:40:56.021Z,31776.00
2022-07-25T09:41:56.010Z,35136.00
2022-07-25T09:42:56.006Z,14948.00
2022-07-25T09:43:55.997Z,25504.00
2022-07-25T09:44:55.991Z,14100.00
2022-07-25T09:45:56.022Z,14316.00
2022-07-25T09:46:55.982Z,37536.00
2022-07-25T09:47:55.974Z,46368.00
2022-07-25T09:48:56.031Z,20832.00
2022-07-25T09:49:55.966Z,11724.00
2022-07-25T09:50:55.959Z,46240.00
2022-07-25T09:51:55.950Z,29024.00
2022-07-25T09:52:55.948Z,13216.00
2022-07-25T09:53:55.942Z,42176.00
2022-07-25T09:54:55.941Z,40640.00
2022-07-25T09:55:55.931Z,40640.00
2022-07-25T09:56:55.927Z,40000.00
2022-07-25T09:57:55.939Z,39584.00
2022-07-25T09:58:55.917Z,38304.00
2022-07-25T09:59:55.911Z,38080.00
2022-07-25T10:00:55.906Z,37696.00
2022-07-25T10:01:56.006Z,29568.00
2022-07-25T10:02:55.972Z,20384.00
2022-07-25T10:03:55.893Z,16704.00
2022-07-25T10:04:55.888Z,15552.00
2022-07-25T10:05:55.879Z,15360.00
2022-07-25T10:06:55.884Z,12204.00
2022-07-25T10:07:55.870Z,9332.00
2022-07-25T10:08:55.867Z,9832.00
2022-07-25T10:09:55.860Z,14380.00
2022-07-25T10:10:55.858Z,11156.00
2022-07-25T10:11:55.854Z,10504.00
2022-07-25T10:12:55.857Z,10260.00
2022-07-25T10:13:55.842Z,10112.00
2022-07-25T10:14:55.838Z,12416.00
2022-07-25T10:15:55.840Z,10792.00
2022-07-25T10:16:55.947Z,11068.00
2022-07-25T10:17:55.822Z,11488.00
2022-07-25T10:18:55.821Z,13952.00
2022-07-25T10:19:58.870Z,9944.00
2022-07-25T10:20:55.808Z,9168.00
2022-07-25T10:21:55.811Z,14144.00
2022-07-25T10:22:57.309Z,12980.00
2022-07-25T10:23:55.795Z,9436.00
2022-07-25T10:24:55.783Z,7972.00
2022-07-25T10:25:55.779Z,7780.00
2022-07-25T10:26:55.772Z,7080.00
2022-07-25T10:27:55.766Z,9688.00
2022-07-25T10:28:55.761Z,8252.00
2022-07-25T10:29:55.757Z,11308.00
2022-07-25T10:30:55.831Z,9848.00
2022-07-25T10:31:55.742Z,11136.00
2022-07-25T10:32:55.743Z,10812.00
2022-07-25T10:33:55.734Z,11224.00
2022-07-25T10:34:55.723Z,9672.00
2022-07-25T10:35:55.721Z,8024.00
2022-07-25T10:36:55.715Z,7752.00
2022-07-25T10:37:55.710Z,7892.00
2022-07-25T10:38:55.702Z,7720.00
2022-07-25T10:39:55.695Z,7324.00
2022-07-25T10:40:55.689Z,7032.00
2022-07-25T10:41:55.683Z,6892.00
2022-07-25T10:42:55.675Z,6920.00
2022-07-25T10:43:55.668Z,6776.00
2022-07-25T10:44:55.663Z,6324.00
2022-07-25T10:45:55.692Z,5848.00
2022-07-25T10:46:55.647Z,5508.00
2022-07-25T10:47:55.650Z,5464.00
2022-07-25T10:48:55.722Z,5544.00
2022-07-25T10:50:14.554Z,5968.00
2022-07-25T10:50:56.758Z,6540.00
2022-07-25T10:51:55.616Z,6108.00
2022-07-25T10:52:55.607Z,5612.00
2022-07-25T10:53:55.597Z,5188.00
2022-07-25T10:54:55.592Z,4580.00
2022-07-25T10:56:05.425Z,4036.00
2022-07-25T10:56:55.597Z,4008.00
2022-07-25T10:58:16.633Z,3948.00
2022-07-25T10:58:55.564Z,3704.00
2022-07-25T10:59:55.552Z,3564.00
2022-07-25T11:00:55.598Z,3460.00
2022-07-25T11:01:55.537Z,3360.00
2022-07-25T11:02:55.609Z,3220.00
2022-07-25T11:03:55.520Z,3084.00
2022-07-25T11:04:55.512Z,3152.00
2022-07-25T11:05:55.510Z,3572.00
2022-07-25T11:06:55.497Z,4172.00
2022-07-25T11:08:20.183Z,4688.00
2022-07-25T11:08:55.481Z,5088.00
2022-07-25T11:09:55.473Z,6096.00
2022-07-25T11:10:55.468Z,6660.00
2022-07-25T11:11:55.456Z,8324.00
2022-07-25T11:12:55.453Z,7844.00
2022-07-25T11:13:55.436Z,9052.00
2022-07-25T11:14:55.432Z,9536.00
2022-07-25T11:15:55.431Z,9796.00
2022-07-25T11:16:55.498Z,8740.00
2022-07-25T11:17:55.411Z,9272.00
2022-07-25T11:18:55.399Z,8276.00
2022-07-25T11:19:55.440Z,9784.00
2022-07-25T11:20:55.385Z,9880.00
2022-07-25T11:21:55.373Z,9652.00
2022-07-25T11:22:55.374Z,9768.00
2022-07-25T11:23:55.366Z,9488.00
2022-07-25T11:24:55.358Z,9284.00
2022-07-25T11:25:55.346Z,9412.00
2022-07-25T11:26:55.346Z,9556.00
2022-07-25T11:27:55.342Z,9648.00
2022-07-25T11:28:55.325Z,9480.00
2022-07-25T11:29:55.323Z,8580.00
2022-07-25T11:30:55.315Z,8916.00
2022-07-25T11:31:55.389Z,8484.00
2022-07-25T11:32:55.304Z,9016.00
2022-07-25T11:33:55.284Z,8732.00
2022-07-25T11:34:55.289Z,8396.00
2022-07-25T11:35:55.268Z,8348.00
2022-07-25T11:36:55.266Z,8416.00
2022-07-25T11:37:55.257Z,8292.00
2022-07-25T11:38:55.253Z,7584.00
2022-07-25T11:39:56.242Z,6272.00
2022-07-25T11:40:55.235Z,6176.00
2022-07-25T11:41:55.227Z,6524.00
2022-07-25T11:42:55.220Z,6456.00
2022-07-25T11:43:55.231Z,8400.00
2022-07-25T11:44:55.208Z,7748.00
2022-07-25T11:45:55.254Z,8208.00
2022-07-25T11:46:55.193Z,8100.00
2022-07-25T11:47:55.185Z,7584.00
2022-07-25T11:48:55.281Z,9108.00
2022-07-25T11:49:55.174Z,6728.00
2022-07-25T11:50:55.164Z,6596.00
2022-07-25T11:51:55.160Z,7460.00
2022-07-25T11:52:55.152Z,9040.00
2022-07-25T11:53:55.138Z,6828.00
2022-07-25T11:54:55.149Z,6264.00
2022-07-25T11:55:55.128Z,6592.00
2022-07-25T11:56:55.126Z,8400.00
2022-07-25T11:57:55.112Z,7988.00
2022-07-25T11:58:55.114Z,7072.00
2022-07-25T11:59:55.112Z,6544.00
2022-07-25T12:00:55.092Z,6448.00
2022-07-25T12:01:55.117Z,5532.00
2022-07-25T12:02:55.214Z,5540.00
2022-07-25T12:03:55.200Z,5948.00
2022-07-25T12:04:55.065Z,6168.00
2022-07-25T12:05:55.066Z,6024.00
2022-07-25T12:06:55.055Z,6456.00
2022-07-25T12:07:55.044Z,6876.00
2022-07-25T12:08:55.035Z,7056.00
2022-07-25T12:09:55.041Z,7948.00
2022-07-25T12:10:55.016Z,7976.00
2022-07-25T12:11:55.016Z,7560.00
2022-07-25T12:12:55.004Z,6364.00
2022-07-25T12:13:54.996Z,6216.00
2022-07-25T12:14:54.991Z,6212.00
2022-07-25T12:15:54.979Z,6152.00
2022-07-25T12:16:55.043Z,5680.00
2022-07-25T12:17:54.981Z,5432.00
2022-07-25T12:18:54.954Z,5252.00
2022-07-25T12:19:54.954Z,5112.00
2022-07-25T12:20:54.943Z,4804.00
2022-07-25T12:21:54.933Z,4584.00
2022-07-25T12:23:54.922Z,4880.00
2022-07-25T12:24:54.911Z,5168.00
2022-07-25T12:25:54.902Z,5648.00